Time;durP1;ratioP1;P1;durP2;ratioP2;P2;SDS_P1;SDS_P2;PMS_P1;PMS_P2;Temp;Humidity;BMP_temperature;BMP_pressure;BME280_temperature;BME280_humidity;BME280_pressure;Samples;Min_cycle;Max_cycle;Signal;HPM_P1;HPM_P2
2022/11/15 00:00:01;;;;;;;47.45;26.80;;;;;;;6.14;100.00;100834.34;5051681;28;20044;-77
2022/11/15 00:02:26;;;;;;;52.75;27.60;;;;;;;6.16;100.00;100820.53;5046750;28;20555;-76
2022/11/15 00:04:51;;;;;;;47.92;25.70;;;;;;;6.20;100.00;100826.56;5063925;28;20024;-76
2022/11/15 00:07:17;;;;;;;49.80;26.55;;;;;;;6.24;100.00;100816.16;5049927;28;20029;-76
2022/11/15 00:09:42;;;;;;;48.45;25.45;;;;;;;6.25;100.00;100820.50;5050294;28;20124;-76
2022/11/15 00:12:07;;;;;;;47.40;26.23;;;;;;;6.31;100.00;100820.47;5050335;28;20033;-76
2022/11/15 00:14:32;;;;;;;49.35;25.67;;;;;;;6.38;100.00;100825.59;5050131;28;20033;-76
2022/11/15 00:16:58;;;;;;;45.80;25.70;;;;;;;6.41;100.00;100817.78;5049998;28;20476;-76
2022/11/15 00:19:23;;;;;;;48.47;26.17;;;;;;;6.39;100.00;100804.00;5051237;28;20029;-76
2022/11/15 00:21:48;;;;;;;51.83;25.65;;;;;;;6.49;100.00;100816.00;5066964;28;20104;-76
2022/11/15 00:24:14;;;;;;;50.10;24.90;;;;;;;6.57;100.00;100811.63;5057056;28;20056;-76
2022/11/15 00:26:39;;;;;;;48.33;25.38;;;;;;;6.64;100.00;100815.91;5063154;28;20471;-76
2022/11/15 00:29:05;;;;;;;47.60;25.15;;;;;;;6.64;100.00;100809.84;5069611;28;20063;-76
2022/11/15 00:31:30;;;;;;;45.35;25.40;;;;;;;6.72;100.00;100821.03;5050317;28;20112;-76
2022/11/15 00:33:55;;;;;;;49.10;25.23;;;;;;;6.76;100.00;100820.13;5050747;28;20086;-76
2022/11/15 00:36:21;;;;;;;51.60;26.23;;;;;;;6.79;100.00;100815.75;5050563;28;20032;-76
2022/11/15 00:38:46;;;;;;;47.50;26.15;;;;;;;6.84;100.00;100812.31;5064424;28;20047;-76
2022/11/15 00:41:11;;;;;;;44.58;24.73;;;;;;;6.75;100.00;100793.34;5058386;28;20473;-76
2022/11/15 00:43:37;;;;;;;46.65;25.13;;;;;;;6.86;100.00;100806.22;5054791;28;20025;-76
2022/11/15 00:46:02;;;;;;;45.15;24.98;;;;;;;6.92;100.00;100806.16;5069511;28;20049;-76
2022/11/15 00:48:28;;;;;;;45.50;24.63;;;;;;;6.95;100.00;100805.28;5062643;28;20100;-76
2022/11/15 00:50:54;;;;;;;44.22;24.98;;;;;;;7.00;100.00;100804.38;5052643;28;20456;-76
2022/11/15 00:53:19;;;;;;;41.67;23.48;;;;;;;6.99;100.00;100802.63;5054283;28;20132;-76
2022/11/15 00:55:44;;;;;;;43.13;25.50;;;;;;;7.02;100.00;100805.19;5065820;28;20028;-76
2022/11/15 00:58:09;;;;;;;47.25;24.60;;;;;;;7.03;100.00;100799.16;5053733;28;20025;-76
2022/11/15 01:00:35;;;;;;;46.67;25.92;;;;;;;7.10;100.00;100792.19;5064662;28;20041;-76
2022/11/15 01:03:01;;;;;;;44.08;24.67;;;;;;;7.10;100.00;100796.50;5064271;28;20029;-76
2022/11/15 01:05:27;;;;;;;47.60;25.13;;;;;;;7.10;100.00;100787.00;5065345;28;20086;-76
2022/11/15 01:07:54;;;;;;;43.13;23.90;;;;;;;7.18;100.00;100792.94;5062494;28;20024;-76
2022/11/15 01:10:20;;;;;;;44.53;26.55;;;;;;;7.23;100.00;100788.59;5058533;28;20082;-76
2022/11/15 01:12:45;;;;;;;45.72;25.63;;;;;;;7.23;100.00;100779.94;5061040;28;20096;-76
2022/11/15 01:15:10;;;;;;;45.95;26.50;;;;;;;7.24;100.00;100787.69;5074569;28;20109;-76
2022/11/15 01:17:36;;;;;;;47.17;25.38;;;;;;;7.28;100.00;100781.59;5045805;28;20877;-76
2022/11/15 01:20:02;;;;;;;46.05;25.70;;;;;;;7.31;100.00;100785.03;5037263;28;20043;-76
2022/11/15 01:22:27;;;;;;;45.90;25.27;;;;;;;7.29;100.00;100785.03;5054789;28;20029;-76
2022/11/15 01:24:52;;;;;;;43.42;24.50;;;;;;;7.27;100.00;100786.81;5053932;28;20151;-76
2022/11/15 01:27:17;;;;;;;44.75;24.40;;;;;;;7.26;100.00;100785.09;5043101;28;20036;-76
2022/11/15 01:29:43;;;;;;;45.55;24.90;;;;;;;7.25;100.00;100779.03;5039726;28;20057;-77
2022/11/15 01:32:08;;;;;;;44.17;25.23;;;;;;;7.21;100.00;100766.97;5049499;28;20039;-76
2022/11/15 01:34:33;;;;;;;51.25;26.08;;;;;;;7.26;100.00;100766.97;5052091;28;20104;-76
2022/11/15 01:36:59;;;;;;;47.05;26.88;;;;;;;7.32;100.00;100769.44;5052135;28;20025;-77
2022/11/15 01:39:24;;;;;;;48.25;27.92;;;;;;;7.33;100.00;100766.00;5053592;28;20460;-76
2022/11/15 01:41:50;;;;;;;54.13;27.27;;;;;;;7.36;100.00;100759.94;5040884;28;20033;-76
2022/11/15 01:44:33;;;;;;;56.58;27.60;;;;;;;7.44;100.00;100761.53;5036471;28;20036;-76
2022/11/15 01:47:06;;;;;;;55.90;27.92;;;;;;;7.52;100.00;100774.44;5039636;28;20025;-77
2022/11/15 01:49:34;;;;;;;53.07;28.43;;;;;;;7.58;100.00;100770.88;5034075;28;20028;-76
2022/11/15 01:52:03;;;;;;;57.03;28.88;;;;;;;7.65;100.00;100767.34;5037849;28;20042;-77
2022/11/15 01:54:29;;;;;;;55.97;28.55;;;;;;;7.69;100.00;100769.88;5043608;28;20049;-76
2022/11/15 01:57:01;;;;;;;51.85;28.55;;;;;;;7.61;100.00;100756.13;5041452;28;20032;-77
2022/11/15 01:59:27;;;;;;;56.83;28.70;;;;;;;7.77;100.00;100772.38;5050402;28;20036;-76
2022/11/15 02:01:52;;;;;;;54.85;29.75;;;;;;;7.75;100.00;100761.19;5050687;28;20162;-77
2022/11/15 02:04:25;;;;;;;58.05;28.52;;;;;;;7.83;100.00;100763.66;5039790;28;20079;-77
2022/11/15 02:06:50;;;;;;;54.07;28.73;;;;;;;7.84;100.00;100753.25;5038926;28;20751;-76
2022/11/15 02:09:17;;;;;;;49.55;26.55;;;;;;;7.88;100.00;100756.66;5050144;28;20040;-76
2022/11/15 02:11:43;;;;;;;54.45;29.65;;;;;;;7.92;100.00;100753.16;5041396;28;20029;-77
2022/11/15 02:14:10;;;;;;;58.53;28.17;;;;;;;7.92;100.00;100742.78;5049471;28;20029;-76
2022/11/15 02:16:58;;;;;;;58.88;29.33;;;;;;;8.01;100.00;100752.16;5052080;28;20036;-76
2022/11/15 02:19:49;;;;;;;56.97;29.25;;;;;;;8.06;100.00;100753.81;5052812;28;20036;-76
2022/11/15 02:22:32;;;;;;;59.90;29.42;;;;;;;8.06;100.00;100747.75;5046721;28;20073;-76
2022/11/15 02:25:31;;;;;;;56.10;28.83;;;;;;;8.11;100.00;100754.59;5037072;28;20083;-76
2022/11/15 02:28:32;;;;;;;57.50;29.63;;;;;;;8.15;100.00;100745.88;5040466;28;20041;-76
2022/11/15 02:31:45;;;;;;;57.03;29.88;;;;;;;8.10;100.00;100729.50;5041916;28;20036;-76
2022/11/15 02:34:28;;;;;;;57.47;29.50;;;;;;;8.27;100.00;100744.81;4999027;28;20480;-76
2022/11/15 02:37:29;;;;;;;61.30;30.77;;;;;;;8.32;100.00;100740.44;5047915;28;20017;-76
2022/11/15 02:40:06;;;;;;;64.38;31.77;;;;;;;8.35;100.00;100735.19;5049577;28;20033;-77
2022/11/15 02:45:28;;;;;;;63.72;31.80;;;;;;;8.38;100.00;100729.13;5038429;28;20032;-76
2022/11/15 02:47:56;;;;;;;61.53;31.25;;;;;;;8.39;100.00;100733.44;5038003;28;20018;-77
2022/11/15 02:50:25;;;;;;;62.08;32.35;;;;;;;8.41;100.00;100731.69;5038408;28;20022;-77
2022/11/15 02:52:51;;;;;;;62.85;32.65;;;;;;;8.47;100.00;100734.19;5038019;28;20048;-77
2022/11/15 02:55:33;;;;;;;59.85;31.38;;;;;;;8.44;100.00;100729.03;5040798;28;20473;-77
2022/11/15 02:58:20;;;;;;;66.40;32.15;;;;;;;8.42;100.00;100721.25;5050585;28;20499;-76
2022/11/15 03:01:21;;;;;;;64.32;32.42;;;;;;;8.48;100.00;100704.69;5048682;28;20082;-77
2022/11/15 03:04:05;;;;;;;59.35;31.35;;;;;;;8.53;100.00;100720.19;5042346;28;20037;-77
2022/11/15 03:06:52;;;;;;;67.47;31.35;;;;;;;8.40;100.00;100691.84;5032766;28;20071;-77
2022/11/15 03:09:42;;;;;;;62.92;31.48;;;;;;;8.53;100.00;100705.47;5042917;28;20033;-77
2022/11/15 03:12:15;;;;;;;60.47;31.23;;;;;;;8.54;100.00;100706.34;5038771;28;20202;-77
2022/11/15 03:14:46;;;;;;;;;;;;;;;8.53;100.00;100709.81;5033576;28;20060;-77
2022/11/15 03:17:23;;;;;;;55.00;29.45;;;;;;;8.54;100.00;100707.19;5038000;28;19921;-77
2022/11/15 03:19:52;;;;;;;59.50;31.27;;;;;;;8.58;100.00;100708.84;5052890;28;20021;-77
2022/11/15 03:22:21;;;;;;;61.25;31.27;;;;;;;8.57;100.00;100708.91;5050962;28;20107;-77
2022/11/15 03:24:52;;;;;;;59.95;31.90;;;;;;;8.61;100.00;100706.19;5038090;28;20036;-76
2022/11/15 03:27:23;;;;;;;63.67;32.15;;;;;;;8.66;100.00;100712.19;5035908;28;20037;-76
2022/11/15 03:29:54;;;;;;;61.13;31.63;;;;;;;8.66;100.00;100709.59;5051466;28;20021;-76
2022/11/15 03:32:25;;;;;;;63.13;32.38;;;;;;;8.61;100.00;100700.16;5048642;28;20468;-77
2022/11/15 03:35:09;;;;;;;59.42;30.90;;;;;;;8.64;100.00;100707.91;5051639;28;20060;-77
2022/11/15 03:37:37;;;;;;;56.95;31.10;;;;;;;8.64;100.00;100708.75;5044019;28;20539;-77
2022/11/15 03:40:04;;;;;;;58.17;29.60;;;;;;;8.63;100.00;100704.44;5031915;28;20030;-77
2022/11/15 03:42:44;;;;;;;63.72;30.58;;;;;;;8.65;100.00;100705.25;5046296;28;20041;-77
2022/11/15 03:45:21;;;;;;;61.20;30.80;;;;;;;8.68;100.00;100715.59;5046991;28;20035;-76
2022/11/15 03:47:54;;;;;;;64.78;31.00;;;;;;;8.70;100.00;100707.78;5043970;28;20024;-77
2022/11/15 03:50:22;;;;;;;61.95;30.98;;;;;;;8.73;100.00;100710.34;5051225;28;20032;-77
2022/11/15 03:52:49;;;;;;;57.60;31.73;;;;;;;8.65;100.00;100705.25;5041949;28;20503;-77
2022/11/15 03:55:20;;;;;;;72.30;33.50;;;;;;;8.74;100.00;100716.38;5051243;28;20029;-77
2022/11/15 03:57:47;;;;;;;65.90;32.63;;;;;;;8.75;100.00;100712.91;5043794;28;20029;-77
2022/11/15 04:00:12;;;;;;;70.45;34.15;;;;;;;8.75;100.00;100713.75;5046765;28;20021;-77
2022/11/15 04:02:38;;;;;;;76.20;34.67;;;;;;;8.76;100.00;100702.47;5034601;28;20088;-77
2022/11/15 04:05:04;;;;;;;70.50;33.65;;;;;;;8.76;100.00;100710.25;5041918;28;20495;-77
2022/11/15 04:07:29;;;;;;;80.90;35.90;;;;;;;8.82;100.00;100702.34;5045008;28;20064;-77
2022/11/15 04:10:03;;;;;;;71.15;33.28;;;;;;;8.79;100.00;100706.75;5051307;28;20021;-77
2022/11/15 04:12:42;;;;;;;71.35;34.97;;;;;;;8.77;100.00;100696.41;5049623;28;20029;-77
2022/11/15 04:15:12;;;;;;;76.75;35.65;;;;;;;8.83;100.00;100706.69;5040855;28;20029;-77
2022/11/15 04:17:43;;;;;;;75.38;33.88;;;;;;;8.80;100.00;100703.28;5043254;28;20074;-77
2022/11/15 04:25:44;;;;;;;69.88;33.60;;;;;;;8.84;100.00;100702.34;5047892;28;20060;-77
2022/11/15 04:28:11;;;;;;;76.82;35.55;;;;;;;8.83;100.00;100698.88;5048392;28;20100;-77
2022/11/15 04:30:36;;;;;;;75.85;33.72;;;;;;;8.74;100.00;100693.00;5041332;28;20073;-77
2022/11/15 04:33:02;;;;;;;77.28;35.15;;;;;;;8.78;100.00;100687.69;5046435;28;20447;-77
2022/11/15 04:35:27;;;;;;;71.75;33.88;;;;;;;8.77;100.00;100695.53;5050599;28;20033;-77
2022/11/15 04:37:53;;;;;;;76.03;35.42;;;;;;;8.74;100.00;100700.78;5036285;28;20033;-77
2022/11/15 04:40:19;;;;;;;72.25;34.28;;;;;;;8.74;100.00;100706.84;5035294;28;20029;-77
2022/11/15 04:42:44;;;;;;;75.43;33.72;;;;;;;8.63;100.00;100698.38;5039631;28;20025;-77
2022/11/15 04:45:09;;;;;;;72.82;32.80;;;;;;;8.75;100.00;100712.91;5054128;28;20423;-77
2022/11/15 04:47:35;;;;;;;72.80;33.42;;;;;;;8.73;100.00;100704.25;5050507;28;20017;-77
2022/11/15 04:50:00;;;;;;;75.57;34.42;;;;;;;8.74;100.00;100709.44;5043924;28;20029;-77
2022/11/15 04:52:26;;;;;;;76.43;33.83;;;;;;;8.77;100.00;100706.78;5043097;28;20034;-78
2022/11/15 04:54:51;;;;;;;73.82;33.05;;;;;;;8.77;100.00;100713.75;5048522;28;20142;-77
2022/11/15 04:57:17;;;;;;;75.43;32.30;;;;;;;8.75;100.00;100707.69;5044628;28;20039;-77
2022/11/15 04:59:42;;;;;;;70.75;33.45;;;;;;;8.76;100.00;100702.47;5036407;28;20030;-77
2022/11/15 05:02:07;;;;;;;73.22;32.42;;;;;;;8.78;100.00;100699.84;5051560;28;20028;-77
2022/11/15 05:04:32;;;;;;;71.57;33.45;;;;;;;8.81;100.00;100705.00;5046379;28;20548;-77
2022/11/15 05:06:58;;;;;;;68.32;32.88;;;;;;;8.78;100.00;100692.06;5038921;28;20033;-77
2022/11/15 05:09:23;;;;;;;77.32;33.15;;;;;;;8.83;100.00;100700.63;5049784;28;20033;-77
2022/11/15 05:11:48;;;;;;;74.78;32.97;;;;;;;8.83;100.00;100695.44;5037054;28;20037;-77
2022/11/15 05:14:14;;;;;;;78.13;34.13;;;;;;;8.85;100.00;100709.25;5051679;28;20032;-77
2022/11/15 05:16:39;;;;;;;75.22;34.03;;;;;;;8.79;100.00;100691.16;5052577;28;20047;-77
2022/11/15 05:19:05;;;;;;;74.03;32.63;;;;;;;8.89;100.00;100703.09;5042993;28;20029;-77
2022/11/15 05:21:31;;;;;;;73.45;33.00;;;;;;;8.83;100.00;100690.25;5049080;28;20025;-77
2022/11/15 05:23:57;;;;;;;75.72;34.63;;;;;;;8.94;100.00;100693.47;5051161;28;20079;-77
2022/11/15 05:26:22;;;;;;;73.47;34.03;;;;;;;8.87;100.00;100682.34;5046445;28;20388;-77
2022/11/15 05:28:55;;;;;;;77.32;32.53;;;;;;;8.90;100.00;100691.84;5044915;28;20025;-77
2022/11/15 05:31:21;;;;;;;66.28;31.52;;;;;;;8.81;100.00;100671.19;5045759;28;20033;-77
2022/11/15 05:33:48;;;;;;;80.55;33.50;;;;;;;8.91;100.00;100684.00;5051077;28;20029;-77
2022/11/15 05:36:25;;;;;;;71.78;33.20;;;;;;;8.94;100.00;100683.06;5043990;28;20431;-77
2022/11/15 05:38:51;;;;;;;74.30;33.35;;;;;;;8.94;100.00;100674.44;5044278;28;20049;-77
2022/11/15 05:41:26;;;;;;;67.53;31.58;;;;;;;8.89;100.00;100680.59;5042533;28;20505;-77
2022/11/15 05:43:53;;;;;;;68.63;32.17;;;;;;;8.86;100.00;100677.16;5053448;28;20027;-77
2022/11/15 05:46:19;;;;;;;72.28;32.03;;;;;;;8.81;100.00;100686.78;5052613;28;20067;-77
2022/11/15 05:48:47;;;;;;;70.07;31.20;;;;;;;8.81;100.00;100687.66;5042183;28;20063;-77
2022/11/15 05:51:15;;;;;;;65.93;30.60;;;;;;;8.67;100.00;100671.47;5034389;28;20032;-77
2022/11/15 05:53:41;;;;;;;70.35;31.13;;;;;;;8.81;100.00;100692.00;5042418;28;20049;-77
2022/11/15 05:56:06;;;;;;;66.40;31.63;;;;;;;8.77;100.00;100672.16;5034896;28;20104;-77
2022/11/15 05:58:35;;;;;;;77.65;32.10;;;;;;;8.89;100.00;100700.50;5052876;28;20033;-77
2022/11/15 06:01:01;;;;;;;75.35;33.10;;;;;;;8.94;100.00;100698.69;5052215;28;20115;-77
2022/11/15 06:03:26;;;;;;;80.18;33.72;;;;;;;8.99;100.00;100696.84;5050366;28;20111;-77
2022/11/15 06:05:52;;;;;;;71.97;31.02;;;;;;;8.97;100.00;100697.78;5046445;28;20071;-77
2022/11/15 06:08:17;;;;;;;74.10;33.95;;;;;;;9.01;100.00;100705.47;5040714;28;20420;-77
2022/11/15 06:10:42;;;;;;;77.60;33.00;;;;;;;9.03;100.00;100702.84;5040525;28;20033;-77
2022/11/15 06:13:07;;;;;;;79.25;34.83;;;;;;;9.07;100.00;100705.34;5042641;28;20030;-77
2022/11/15 06:15:34;;;;;;;81.38;32.60;;;;;;;9.10;100.00;100710.50;5040754;28;20037;-77
2022/11/15 06:17:59;;;;;;;74.85;32.67;;;;;;;9.09;100.00;100711.41;5045652;28;20029;-77
2022/11/15 06:20:26;;;;;;;71.00;33.13;;;;;;;9.11;100.00;100716.56;5038465;28;20511;-77
2022/11/15 06:23:03;;;;;;;76.65;33.00;;;;;;;9.16;100.00;100714.72;5049598;28;20822;-77
2022/11/15 06:25:30;;;;;;;74.90;33.65;;;;;;;9.12;100.00;100707.84;5043099;28;20040;-77
2022/11/15 06:27:57;;;;;;;77.55;32.70;;;;;;;9.13;100.00;100712.19;5043476;28;20021;-77
2022/11/15 06:30:24;;;;;;;71.97;32.75;;;;;;;8.97;100.00;100696.03;5035959;28;20152;-77
2022/11/15 06:32:49;;;;;;;77.15;33.33;;;;;;;9.09;100.00;100707.91;5038593;28;20033;-77
2022/11/15 06:35:15;;;;;;;81.47;32.42;;;;;;;9.03;100.00;100708.91;5044114;28;20432;-78
2022/11/15 06:37:41;;;;;;;77.40;32.28;;;;;;;9.02;100.00;100709.78;5049833;28;20041;-77
2022/11/15 06:40:08;;;;;;;68.60;30.38;;;;;;;9.04;100.00;100714.97;5051521;28;20033;-77
2022/11/15 06:42:33;;;;;;;68.07;31.48;;;;;;;9.00;100.00;100708.97;5039051;28;20045;-77
2022/11/15 06:44:58;;;;;;;67.57;29.90;;;;;;;8.95;100.00;100713.38;5040536;28;20017;-77
2022/11/15 06:47:24;;;;;;;62.45;29.02;;;;;;;8.98;100.00;100722.88;5051257;28;20437;-77
2022/11/15 06:49:49;;;;;;;63.00;27.92;;;;;;;8.93;100.00;100719.50;5052759;28;20033;-77
2022/11/15 06:52:14;;;;;;;59.35;27.17;;;;;;;8.95;100.00;100731.59;5051158;28;20639;-78
2022/11/15 06:54:40;;;;;;;61.35;27.63;;;;;;;8.93;100.00;100732.50;5051076;28;20028;-77
2022/11/15 06:57:05;;;;;;;55.53;25.45;;;;;;;8.91;100.00;100735.13;5047166;28;20542;-77
2022/11/15 06:59:30;;;;;;;58.30;27.05;;;;;;;8.89;100.00;100732.56;5037662;28;20393;-77
2022/11/15 07:01:56;;;;;;;55.90;26.05;;;;;;;8.90;100.00;100736.03;5049870;28;20112;-77
2022/11/15 07:04:21;;;;;;;55.33;25.70;;;;;;;8.89;100.00;100734.28;5049077;28;20124;-77
2022/11/15 07:06:47;;;;;;;53.85;25.48;;;;;;;8.86;100.00;100740.44;5048866;28;20036;-77
2022/11/15 07:09:13;;;;;;;58.03;26.35;;;;;;;8.85;100.00;100741.28;5049532;28;20029;-77
2022/11/15 07:11:38;;;;;;;52.13;24.98;;;;;;;8.84;100.00;100738.72;5048271;28;20028;-77
2022/11/15 07:14:03;;;;;;;54.58;26.00;;;;;;;8.84;100.00;100742.19;5039951;28;20112;-77
2022/11/15 07:16:29;;;;;;;57.08;26.38;;;;;;;8.84;100.00;100749.97;5046005;28;20025;-77
2022/11/15 07:18:54;;;;;;;50.20;25.25;;;;;;;8.88;100.00;100749.03;5041176;28;20489;-77
2022/11/15 07:21:19;;;;;;;55.47;25.10;;;;;;;8.86;100.00;100745.63;5036451;28;20037;-77
2022/11/15 07:23:44;;;;;;;58.72;26.48;;;;;;;8.93;100.00;100754.16;5037645;28;20038;-77
2022/11/15 07:26:10;;;;;;;53.08;25.50;;;;;;;8.93;100.00;100746.38;5045230;28;20111;-77
2022/11/15 07:28:35;;;;;;;57.60;25.45;;;;;;;8.94;100.00;100755.88;5043150;28;20025;-77
2022/11/15 07:31:06;;;;;;;55.45;26.77;;;;;;;8.94;100.00;100750.69;5037433;28;20120;-77
2022/11/15 07:33:31;;;;;;;59.58;26.17;;;;;;;8.99;100.00;100748.88;5050549;28;20477;-77
2022/11/15 07:36:04;;;;;;;55.08;25.52;;;;;;;8.93;100.00;100741.19;5051659;28;20100;-77
2022/11/15 07:38:29;;;;;;;56.13;24.98;;;;;;;8.98;100.00;100747.13;5051480;28;20059;-78
2022/11/15 07:41:00;;;;;;;53.47;24.92;;;;;;;8.96;100.00;100743.72;5034502;28;20060;-77
2022/11/15 07:43:27;;;;;;;57.63;26.30;;;;;;;8.95;100.00;100741.13;5039200;28;20033;-77
2022/11/15 07:45:53;;;;;;;55.40;25.33;;;;;;;8.85;100.00;100730.88;5036612;28;20045;-77
2022/11/15 07:48:18;;;;;;;51.58;23.08;;;;;;;8.91;100.00;100737.72;5050763;28;20068;-76
2022/11/15 07:50:43;;;;;;;49.05;23.95;;;;;;;8.87;100.00;100738.69;5035347;28;20045;-76
2022/11/15 07:53:10;;;;;;;50.58;23.58;;;;;;;8.85;100.00;100741.28;5033830;28;20485;-77
2022/11/15 07:55:35;;;;;;;53.47;24.58;;;;;;;8.80;100.00;100732.72;5035865;28;20056;-77
2022/11/15 07:58:06;;;;;;;46.60;22.73;;;;;;;8.82;100.00;100743.09;5050665;28;20033;-77
2022/11/15 08:00:32;;;;;;;49.55;23.75;;;;;;;8.80;100.00;100744.88;5043061;28;20025;-77
2022/11/15 08:03:12;;;;;;;51.88;24.05;;;;;;;8.80;100.00;100747.47;5038704;28;20029;-77
2022/11/15 08:05:39;;;;;;;53.30;24.00;;;;;;;8.72;100.00;100729.41;5035412;28;20061;-77
2022/11/15 08:08:05;;;;;;;50.80;23.58;;;;;;;8.85;100.00;100746.50;5036393;28;20338;-77
2022/11/15 08:10:31;;;;;;;50.88;23.17;;;;;;;8.90;100.00;100764.63;5047019;28;20052;-77
2022/11/15 08:13:07;;;;;;;45.65;22.40;;;;;;;8.88;100.00;100761.19;5037453;28;20125;-77
2022/11/15 08:15:33;;;;;;;40.70;20.73;;;;;;;8.85;100.00;100753.44;5040227;28;20020;-76
2022/11/15 08:18:03;;;;;;;45.20;20.33;;;;;;;8.78;100.00;100760.47;5048495;28;20067;-77
2022/11/15 08:20:29;;;;;;;40.15;19.50;;;;;;;8.72;100.00;100752.78;5035258;28;20034;-76
2022/11/15 08:22:56;;;;;;;39.70;20.30;;;;;;;8.68;100.00;100749.38;5046943;28;20469;-76
2022/11/15 08:25:22;;;;;;;35.97;18.48;;;;;;;8.64;100.00;100758.13;5048873;28;20093;-76
2022/11/15 08:27:50;;;;;;;37.15;18.52;;;;;;;8.52;100.00;100734.09;5064306;28;20468;-76
2022/11/15 08:30:15;;;;;;;35.97;18.70;;;;;;;8.65;100.00;100743.38;5050547;28;20059;-76
2022/11/15 08:32:41;;;;;;;35.42;18.52;;;;;;;8.71;100.00;100747.63;5035785;28;20073;-76
2022/11/15 08:35:07;;;;;;;31.77;17.65;;;;;;;8.71;100.00;100738.09;5050232;28;20032;-76
2022/11/15 08:37:32;;;;;;;29.17;16.67;;;;;;;8.71;100.00;100735.50;5042845;28;20400;-76
2022/11/15 08:39:57;;;;;;;32.05;16.13;;;;;;;8.71;100.00;100734.63;5041795;28;20101;-76
2022/11/15 08:42:22;;;;;;;29.48;15.68;;;;;;;8.75;100.00;100738.88;5050403;28;20029;-76
2022/11/15 08:44:48;;;;;;;28.20;16.02;;;;;;;8.78;100.00;100737.09;5054637;28;20071;-76
2022/11/15 08:47:13;;;;;;;30.50;15.82;;;;;;;8.83;100.00;100734.44;5052874;28;20040;-76
2022/11/15 08:49:39;;;;;;;26.83;14.93;;;;;;;8.81;100.00;100718.84;5046097;28;20104;-76
2022/11/15 08:52:04;;;;;;;28.67;14.05;;;;;;;8.86;100.00;100714.44;5044495;28;20075;-76
2022/11/15 08:54:30;;;;;;;24.60;14.93;;;;;;;8.94;100.00;100716.88;5040602;28;20517;-76
2022/11/15 08:56:55;;;;;;;25.15;14.48;;;;;;;9.01;100.00;100715.88;5039444;28;20492;-76
2022/11/15 08:59:20;;;;;;;22.73;13.52;;;;;;;9.08;100.00;100719.22;5046603;28;20116;-76
2022/11/15 09:01:45;;;;;;;21.90;12.43;;;;;;;9.11;100.00;100708.75;5044044;28;20033;-75
2022/11/15 09:04:11;;;;;;;19.65;11.80;;;;;;;9.11;100.00;100716.56;5050866;28;20453;-75
2022/11/15 09:06:36;;;;;;;18.17;11.20;;;;;;;9.07;100.00;100702.75;5047397;28;20033;-76
2022/11/15 09:09:02;;;;;;;17.45;11.15;;;;;;;9.06;100.00;100692.41;5033686;28;20021;-76
2022/11/15 09:11:27;;;;;;;12.95;9.50;;;;;;;9.10;100.00;100692.28;5034859;28;20033;-76
2022/11/15 09:13:53;;;;;;;14.60;9.43;;;;;;;9.04;100.00;100683.75;5046656;28;20380;-76
2022/11/15 09:16:18;;;;;;;15.88;9.27;;;;;;;9.10;100.00;100688.84;5036515;28;20018;-76
2022/11/15 09:18:43;;;;;;;15.23;8.40;;;;;;;9.06;100.00;100677.66;5035122;28;20061;-76
2022/11/15 09:21:10;;;;;;;11.60;7.25;;;;;;;9.12;100.00;100677.53;5034905;28;20480;-76
2022/11/15 09:23:35;;;;;;;9.75;7.18;;;;;;;9.19;100.00;100673.06;5033823;28;20025;-76
2022/11/15 09:26:02;;;;;;;13.50;7.05;;;;;;;9.29;100.00;100684.13;5034966;28;20026;-76
2022/11/15 09:28:28;;;;;;;10.00;6.85;;;;;;;9.36;100.00;100688.31;5048660;28;20048;-76
2022/11/15 09:30:57;;;;;;;11.00;5.85;;;;;;;9.40;100.00;100682.16;5041480;28;20483;-76
2022/11/15 09:33:22;;;;;;;7.57;5.75;;;;;;;9.44;100.00;100681.19;5048090;28;20071;-76
2022/11/15 09:35:48;;;;;;;8.25;5.28;;;;;;;9.45;100.00;100680.31;5045619;28;20022;-76
2022/11/15 09:38:13;;;;;;;5.82;4.32;;;;;;;9.41;100.00;100676.03;5033852;28;20064;-76
2022/11/15 09:40:38;;;;;;;7.85;4.38;;;;;;;9.34;100.00;100671.88;5039476;28;20401;-76
2022/11/15 09:43:19;;;;;;;7.63;4.40;;;;;;;9.31;100.00;100682.34;5053558;28;20474;-76
2022/11/15 09:45:55;;;;;;;5.75;4.05;;;;;;;9.22;100.00;100679.91;5050551;28;20032;-76
2022/11/15 09:48:40;;;;;;;6.72;4.30;;;;;;;9.23;100.00;100681.66;5053649;28;20025;-76
2022/11/15 09:51:13;;;;;;;6.03;3.53;;;;;;;9.18;100.00;100670.47;5039334;28;20479;-76
2022/11/15 09:53:48;;;;;;;7.03;3.50;;;;;;;9.20;100.00;100679.13;5046000;28;20033;-76
2022/11/15 09:56:27;;;;;;;9.40;3.70;;;;;;;9.16;100.00;100661.88;5042401;28;20027;-76
2022/11/15 09:58:57;;;;;;;6.90;2.78;;;;;;;9.19;100.00;100656.56;5033356;28;20025;-76
2022/11/15 10:01:49;;;;;;;4.50;2.90;;;;;;;9.19;100.00;100664.38;5033843;28;20084;-76
2022/11/15 10:04:15;;;;;;;3.92;2.70;;;;;;;9.24;100.00;100670.34;5040828;28;20033;-76
2022/11/15 10:06:46;;;;;;;8.00;2.47;;;;;;;9.31;100.00;100670.19;5051149;28;20167;-76
2022/11/15 10:09:31;;;;;;;4.85;2.30;;;;;;;9.40;100.00;100666.53;5039078;28;20064;-76
2022/11/15 10:11:57;;;;;;;7.13;2.35;;;;;;;9.47;100.00;100669.88;5042233;28;20033;-75
2022/11/15 10:14:26;;;;;;;3.95;2.22;;;;;;;9.51;100.00;100664.53;5053123;28;20468;-75
2022/11/15 10:17:09;;;;;;;7.40;2.30;;;;;;;9.67;100.00;100664.22;5052702;28;20488;-76
2022/11/15 10:19:45;;;;;;;6.82;2.58;;;;;;;9.79;100.00;100672.59;5036342;28;20021;-76
2022/11/15 10:22:38;;;;;;;5.30;1.95;;;;;;;9.89;100.00;100669.78;5050456;28;20052;-76
2022/11/15 10:25:12;;;;;;;10.18;1.98;;;;;;;9.91;100.00;100652.38;5044229;28;20032;-76
2022/11/15 10:27:39;;;;;;;6.55;1.70;;;;;;;9.91;100.00;100649.75;5032772;28;20413;-76
2022/11/15 10:30:15;;;;;;;8.23;1.80;;;;;;;9.79;100.00;100643.13;5033542;28;20029;-76
2022/11/15 10:32:42;;;;;;;5.88;1.58;;;;;;;9.82;100.00;100654.31;5041975;28;20057;-76
2022/11/15 10:35:29;;;;;;;2.83;1.60;;;;;;;9.84;100.00;100646.44;5038448;28;20026;-76
2022/11/15 10:38:08;;;;;;;3.13;1.70;;;;;;;9.82;100.00;100635.25;5033328;28;20030;-76
2022/11/15 10:40:35;;;;;;;5.28;1.50;;;;;;;9.76;100.00;100635.38;5035370;28;20029;-75
2022/11/15 10:43:15;;;;;;;2.55;1.33;;;;;;;9.73;100.00;100633.69;5033175;28;20032;-75
2022/11/15 10:45:42;;;;;;;8.27;1.65;;;;;;;9.72;100.00;100621.56;5033352;28;20071;-76
2022/11/15 10:48:13;;;;;;;4.85;1.38;;;;;;;9.76;100.00;100622.34;5032666;28;20021;-75
2022/11/15 10:50:43;;;;;;;6.13;1.55;;;;;;;9.78;100.00;100620.59;5034647;28;20040;-76
2022/11/15 10:53:23;;;;;;;5.18;1.52;;;;;;;9.82;100.00;100601.38;5050745;28;20037;-76
2022/11/15 10:55:52;;;;;;;4.72;1.70;;;;;;;9.89;100.00;100621.16;5048315;28;20040;-76
2022/11/15 10:58:32;;;;;;;3.83;1.35;;;;;;;9.92;100.00;100609.84;5043785;28;20020;-75
2022/11/15 11:01:09;;;;;;;5.00;1.52;;;;;;;9.89;100.00;100599.50;5039567;28;20041;-78
2022/11/15 11:03:38;;;;;;;7.35;1.55;;;;;;;9.94;100.00;100608.03;5037757;28;20029;-76
2022/11/15 11:06:17;;;;;;;6.88;1.75;;;;;;;9.95;100.00;100613.22;5046670;28;20113;-76
2022/11/15 11:08:56;;;;;;;3.35;1.60;;;;;;;9.94;100.00;100597.59;5041617;28;20026;-76
2022/11/15 11:11:22;;;;;;;5.00;1.85;;;;;;;9.91;100.00;100584.66;5049697;28;20120;-76
2022/11/15 11:13:48;;;;;;;6.88;1.83;;;;;;;9.99;100.00;100586.19;5053993;28;20519;-76
2022/11/15 11:16:13;;;;;;;6.75;2.00;;;;;;;10.04;100.00;100589.56;5064523;28;20100;-76
2022/11/15 11:18:45;;;;;;;4.30;1.83;;;;;;;10.03;100.00;100580.00;5049077;28;20100;-76
2022/11/15 11:21:14;;;;;;;6.50;1.70;;;;;;;10.12;100.00;100583.28;5045374;28;20020;-76
2022/11/15 11:23:57;;;;;;;6.70;1.67;;;;;;;10.15;100.00;100568.44;5067825;28;20039;-76
2022/11/15 11:26:41;;;;;;;6.72;1.67;;;;;;;10.21;100.00;100554.41;5032431;28;20032;-75
2022/11/15 11:29:12;;;;;;;3.78;1.77;;;;;;;10.31;98.62;100550.69;5037533;28;20476;-75